Time;durP1;ratioP1;P1;durP2;ratioP2;P2;SDS_P1;SDS_P2;PMS_P1;PMS_P2;Temp;Humidity;BMP_temperature;BMP_pressure;BME280_temperature;BME280_humidity;BME280_pressure;Samples;Min_cycle;Max_cycle;Signal;HPM_P1;HPM_P2
2023/08/20 04:31:57;;;;;;;;;1.75;1.75;;;;;32.54;37.24;101629.56;3229375;26;46710;-74
2023/08/20 04:34:23;;;;;;;;;4.75;1.75;;;;;32.54;36.81;101635.13;4932758;28;46170;-75
2023/08/20 04:36:48;;;;;;;;;1.25;1.25;;;;;32.49;36.75;101626.53;4932970;28;45468;-73
2023/08/20 04:39:14;;;;;;;;;1.25;1.25;;;;;32.41;36.78;101628.53;4932848;28;45491;-74
2023/08/20 04:41:39;;;;;;;;;2.75;2.75;;;;;32.29;37.04;101637.31;4934040;28;52136;-73
2023/08/20 04:44:04;;;;;;;;;3.00;2.00;;;;;32.30;37.26;101649.28;4932854;28;46047;-74
2023/08/20 04:46:30;;;;;;;;;2.25;2.25;;;;;32.33;36.96;101640.56;4933573;28;45457;-74
2023/08/20 04:48:55;;;;;;;;;2.25;1.50;;;;;32.28;37.10;101637.50;4933241;28;45404;-76
2023/08/20 04:51:20;;;;;;;;;2.50;2.50;;;;;32.24;37.53;101631.47;4933479;28;47063;-73
2023/08/20 04:53:47;;;;;;;;;1.75;1.75;;;;;32.26;37.66;101636.84;4932457;28;46029;-74
2023/08/20 04:56:13;;;;;;;;;1.75;1.75;;;;;32.26;37.47;101642.38;4933240;28;45591;-73
2023/08/20 04:58:38;;;;;;;;;1.75;1.75;;;;;32.33;37.28;101649.75;4932787;28;45464;-74
2023/08/20 05:01:05;;;;;;;;;2.75;2.75;;;;;32.33;37.63;101646.13;4934285;28;45595;-73
2023/08/20 05:03:31;;;;;;;;;2.25;2.25;;;;;32.38;37.32;101648.34;4932266;28;46920;-74
2023/08/20 05:05:56;;;;;;;;;3.50;1.75;;;;;32.33;37.38;101648.06;4932762;28;45378;-73
2023/08/20 05:08:21;;;;;;;;;2.75;2.75;;;;;32.56;36.61;101648.81;4932474;28;45346;-74
2023/08/20 05:10:49;;;;;;;;;1.00;1.00;;;;;32.56;36.84;101643.25;4932556;28;45560;-73
2023/08/20 05:13:14;;;;;;;;;1.50;1.50;;;;;32.55;37.40;101650.72;4933988;28;45402;-76
2023/08/20 05:15:39;;;;;;;;;2.50;2.25;;;;;32.53;36.88;101640.84;4934718;28;45429;-73
2023/08/20 05:18:05;;;;;;;;;2.00;2.00;;;;;32.59;36.70;101657.59;4934138;28;45286;-74
2023/08/20 05:20:30;;;;;;;;;3.00;3.00;;;;;32.56;36.81;101646.91;4933963;28;45648;-75
2023/08/20 05:22:55;;;;;;;;;1.50;1.50;;;;;32.56;36.80;101652.47;4933536;28;47336;-75
2023/08/20 05:25:21;;;;;;;;;1.00;1.00;;;;;32.59;37.39;101653.97;4933968;28;45297;-75
2023/08/20 05:27:46;;;;;;;;;3.50;3.50;;;;;32.57;37.25;101654.19;4934209;28;45511;-76
2023/08/20 05:30:11;;;;;;;;;5.50;2.75;;;;;32.58;36.94;101655.88;4934378;28;46804;-75
2023/08/20 05:32:37;;;;;;;;;2.00;2.00;;;;;32.62;37.07;101650.81;4933335;28;45740;-75
2023/08/20 05:35:03;;;;;;;;;2.75;2.75;;;;;32.60;37.47;101653.78;4934463;28;47203;-74
2023/08/20 05:37:29;;;;;;;;;3.75;2.50;;;;;32.64;37.40;101657.91;4934380;28;45359;-75
2023/08/20 05:39:54;;;;;;;;;2.75;2.00;;;;;32.65;37.48;101656.00;4933389;28;45552;-75
2023/08/20 05:42:20;;;;;;;;;2.50;2.00;;;;;32.68;37.32;101658.38;4932910;28;54936;-75
2023/08/20 05:44:45;;;;;;;;;2.75;2.25;;;;;32.72;37.52;101656.09;4933961;28;46491;-72
2023/08/20 05:47:10;;;;;;;;;2.00;2.00;;;;;32.73;37.32;101660.63;4933418;28;45320;-72
2023/08/20 05:49:36;;;;;;;;;3.00;3.00;;;;;32.71;37.54;101663.56;4932836;28;45398;-73
2023/08/20 05:52:01;;;;;;;;;4.00;2.50;;;;;32.71;37.16;101660.81;4934096;28;48337;-73
2023/08/20 05:54:26;;;;;;;;;2.75;2.75;;;;;32.69;37.62;101663.75;4934677;28;45408;-72
2023/08/20 05:56:52;;;;;;;;;2.50;2.50;;;;;32.67;37.33;101668.59;4934242;28;45424;-75
2023/08/20 05:59:17;;;;;;;;;3.00;3.00;;;;;32.68;37.49;101666.69;4934450;28;45415;-74
2023/08/20 06:01:47;;;;;;;;;2.25;2.25;;;;;32.70;37.35;101672.97;4934546;28;46133;-74
2023/08/20 06:04:12;;;;;;;;;2.75;2.00;;;;;32.69;37.21;101666.53;4922734;28;45541;-73
2023/08/20 06:06:38;;;;;;;;;1.75;1.75;;;;;32.64;37.45;101663.47;4933825;28;45303;-75
2023/08/20 06:09:05;;;;;;;;;2.00;2.00;;;;;32.71;37.87;101677.47;4933689;28;45495;-74
2023/08/20 06:11:30;;;;;;;;;2.50;2.50;;;;;32.78;37.76;101685.88;4933949;28;45382;-77
2023/08/20 06:13:55;;;;;;;;;2.25;2.25;;;;;32.80;37.53;101684.63;4935451;28;45269;-74
2023/08/20 06:16:21;;;;;;;;;3.75;3.75;;;;;32.85;37.86;101692.38;4935583;28;45405;-74
2023/08/20 06:18:47;;;;;;;;;3.50;2.50;;;;;32.87;37.67;101688.38;4933231;28;45578;-74
2023/08/20 06:21:13;;;;;;;;;3.25;2.25;;;;;32.97;37.07;101686.16;4934928;28;46305;-74
2023/08/20 06:23:38;;;;;;;;;2.00;2.00;;;;;33.00;37.44;101691.34;4948777;28;45744;-73
2023/08/20 06:26:03;;;;;;;;;3.00;3.00;;;;;32.97;37.76;101679.72;4936277;28;45468;-76
2023/08/20 06:28:29;;;;;;;;;4.00;2.50;;;;;32.98;37.95;101684.22;4937876;28;45373;-74
2023/08/20 06:30:54;;;;;;;;;2.00;2.00;;;;;32.93;37.56;101676.47;4925664;28;46388;-75
2023/08/20 06:33:21;;;;;;;;;3.00;1.75;;;;;33.08;37.08;101690.34;4931390;28;45407;-76
2023/08/20 06:35:46;;;;;;;;;2.25;2.25;;;;;33.06;37.40;101687.75;4931775;28;45408;-75
2023/08/20 06:38:11;;;;;;;;;4.75;3.00;;;;;33.22;37.23;101686.69;4952779;28;45851;-73
2023/08/20 06:40:37;;;;;;;;;5.00;3.75;;;;;32.97;37.47;101694.47;4937245;28;53317;-75
2023/08/20 06:43:03;;;;;;;;;2.50;2.50;;;;;32.94;37.29;101685.66;4937813;28;45398;-74
2023/08/20 06:45:29;;;;;;;;;2.75;2.75;;;;;32.92;37.62;101690.56;4936890;28;45484;-75
2023/08/20 06:47:54;;;;;;;;;3.00;3.00;;;;;32.96;37.70;101689.13;4936040;28;45440;-78
2023/08/20 06:50:20;;;;;;;;;2.75;2.75;;;;;32.94;37.73;101688.44;4935485;28;46214;-77
2023/08/20 06:52:45;;;;;;;;;3.75;3.00;;;;;32.98;37.59;101693.44;4936115;28;45460;-75
2023/08/20 06:55:10;;;;;;;;;3.00;2.50;;;;;33.03;37.79;101698.41;4936003;28;45481;-75
2023/08/20 06:57:36;;;;;;;;;5.50;2.25;;;;;33.11;37.60;101698.28;4937369;28;45344;-76
2023/08/20 07:00:01;;;;;;;;;2.00;2.00;;;;;33.19;37.45;101691.75;4937221;28;46119;-73
2023/08/20 07:02:28;;;;;;;;;3.50;3.00;;;;;33.24;38.10;101700.41;4936762;28;45401;-75
2023/08/20 07:04:53;;;;;;;;;3.00;3.00;;;;;33.21;37.99;101693.31;4937155;28;45372;-76
2023/08/20 07:07:19;;;;;;;;;3.00;3.00;;;;;33.25;37.73;101702.13;4936451;28;45380;-77
2023/08/20 07:09:44;;;;;;;;;3.50;3.00;;;;;33.40;37.45;101701.03;4937396;28;45647;-74
2023/08/20 07:12:09;;;;;;;;;2.00;2.00;;;;;33.49;37.80;101701.75;4936094;28;45306;-76
2023/08/20 07:14:35;;;;;;;;;4.25;3.00;;;;;33.54;37.81;101707.59;4937572;28;45519;-76
2023/08/20 07:17:02;;;;;;;;;2.00;2.00;;;;;33.58;37.85;101692.25;4937040;28;45719;-75
2023/08/20 07:19:28;;;;;;;;;5.50;3.00;;;;;33.64;37.57;101691.44;4937325;28;45567;-74
2023/08/20 07:21:53;;;;;;;;;3.00;3.00;;;;;33.67;37.63;101704.09;4937143;28;45389;-75
2023/08/20 07:24:25;;;;;;;;;4.00;4.00;;;;;33.63;37.61;101699.97;4937674;28;45346;-75
2023/08/20 07:26:50;;;;;;;;;4.00;4.00;;;;;33.50;38.09;101692.38;4937132;28;46423;-75
2023/08/20 07:29:15;;;;;;;;;6.50;4.00;;;;;33.47;37.92;101705.78;4937370;28;45299;-76
2023/08/20 07:31:41;;;;;;;;;3.75;3.75;;;;;33.53;37.82;101710.56;4937156;28;45452;-76
2023/08/20 07:34:06;;;;;;;;;3.75;3.75;;;;;33.55;38.09;101703.75;4937300;28;45433;-76
2023/08/20 07:36:32;;;;;;;;;3.00;3.00;;;;;33.60;37.69;101714.28;4936948;28;52220;-75
2023/08/20 07:38:57;;;;;;;;;4.75;4.00;;;;;33.45;38.34;101700.44;4937526;28;46109;-76
2023/08/20 07:41:22;;;;;;;;;4.00;3.00;;;;;33.24;38.63;101700.41;4952360;28;45331;-76
2023/08/20 07:43:48;;;;;;;;;3.50;3.00;;;;;33.25;39.40;101707.69;4937517;28;45926;-76
2023/08/20 07:46:14;;;;;;;;;4.00;4.00;;;;;33.25;39.23;101691.88;4936963;28;45403;-74
2023/08/20 07:48:40;;;;;;;;;4.00;4.00;;;;;33.18;39.53;101699.22;4936713;28;45997;-74
2023/08/20 07:51:06;;;;;;;;;4.25;4.25;;;;;33.25;39.50;101697.44;4935439;28;45311;-75
2023/08/20 07:53:33;;;;;;;;;4.00;4.00;;;;;33.37;39.62;101700.53;4937253;28;45449;-78
2023/08/20 07:55:59;;;;;;;;;4.00;4.00;;;;;33.37;39.34;101706.97;4937018;28;45374;-74
2023/08/20 07:58:25;;;;;;;;;7.25;4.00;;;;;33.74;39.16;101705.91;4936932;28;45433;-76
2023/08/20 08:00:50;;;;;;;;;6.75;5.00;;;;;33.76;39.13;101719.63;4936681;28;45403;-74
2023/08/20 08:03:17;;;;;;;;;4.75;3.50;;;;;33.85;39.27;101712.88;4936791;28;45385;-74
2023/08/20 08:05:49;;;;;;;;;5.50;4.00;;;;;33.94;39.12;101722.78;4937036;28;45212;-75
2023/08/20 08:08:16;;;;;;;;;4.00;3.75;;;;;33.93;38.58;101709.94;4935852;28;45436;-71
2023/08/20 08:10:44;;;;;;;;;6.00;4.25;;;;;34.02;38.33;101713.44;4936604;28;45395;-75
2023/08/20 08:13:10;;;;;;;;;3.50;3.50;;;;;34.20;38.61;101712.97;4936887;28;45310;-72
2023/08/20 08:15:35;;;;;;;;;2.50;2.50;;;;;34.21;38.39;101709.09;4936655;28;45279;-75
2023/08/20 08:18:00;;;;;;;;;4.75;4.75;;;;;34.31;38.10;101704.94;4936178;28;51846;-76
2023/08/20 08:20:26;;;;;;;;;4.25;4.25;;;;;34.25;37.94;101721.59;4936598;28;45399;-73
2023/08/20 08:22:51;;;;;;;;;3.75;2.50;;;;;34.18;38.54;101715.94;4936981;28;45358;-78
2023/08/20 08:25:16;;;;;;;;;5.00;5.00;;;;;34.15;38.52;101705.19;4937125;28;48743;-74
2023/08/20 08:27:41;;;;;;;;;5.50;4.50;;;;;34.28;38.59;101724.84;4936935;28;50838;-74
2023/08/20 08:30:07;;;;;;;;;4.25;4.25;;;;;34.41;38.55;101736.06;4936638;28;45740;-74
2023/08/20 08:32:32;;;;;;;;;4.00;4.00;;;;;34.45;38.39;101728.19;4936167;28;45494;-73
2023/08/20 08:34:57;;;;;;;;;4.75;4.75;;;;;34.54;38.42;101719.44;4936613;28;45507;-73
2023/08/20 08:37:23;;;;;;;;;3.25;3.25;;;;;34.68;38.28;101734.31;4936590;28;45331;-74
2023/08/20 08:39:48;;;;;;;;;4.00;4.00;;;;;34.82;38.17;101726.94;4936331;28;45337;-74
2023/08/20 08:42:14;;;;;;;;;5.00;5.00;;;;;34.88;37.88;101735.31;4936423;28;45283;-74
2023/08/20 08:44:40;;;;;;;;;4.50;4.50;;;;;34.88;37.71;101734.47;4936319;28;45270;-73
2023/08/20 08:47:06;;;;;;;;;3.00;3.00;;;;;34.96;37.63;101737.09;4950847;28;48505;-73
2023/08/20 08:49:34;;;;;;;;;6.00;4.50;;;;;34.88;37.78;101732.53;4935627;28;45343;-73
2023/08/20 08:52:01;;;;;;;;;2.50;2.50;;;;;34.76;38.02;101728.63;4923430;28;45344;-76
2023/08/20 08:54:27;;;;;;;;;5.00;5.00;;;;;34.74;38.18;101727.97;4936067;28;45405;-75
2023/08/20 08:56:52;;;;;;;;;4.00;4.00;;;;;34.75;38.02;101728.81;4935837;28;46192;-74
2023/08/20 08:59:18;;;;;;;;;4.00;4.00;;;;;34.53;38.74;101730.81;4936287;28;45380;-75
2023/08/20 09:01:44;;;;;;;;;4.50;4.50;;;;;34.54;38.85;101715.78;4936026;28;45431;-74
2023/08/20 09:04:09;;;;;;;;;4.00;2.75;;;;;34.75;38.62;101726.91;4936205;28;45514;-74
2023/08/20 09:06:48;;;;;;;;;4.75;3.00;;;;;34.82;38.48;101711.06;4936168;28;46229;-76
2023/08/20 09:09:14;;;;;;;;;4.75;4.00;;;;;34.84;38.43;101716.44;4936166;28;45249;-75
2023/08/20 09:11:39;;;;;;;;;5.00;5.00;;;;;35.05;37.73;101712.72;4936009;28;45292;-75
2023/08/20 09:14:05;;;;;;;;;5.75;4.75;;;;;35.03;37.79;101706.47;4936039;28;45588;-74
2023/08/20 09:16:31;;;;;;;;;4.00;4.00;;;;;35.12;37.36;101703.31;4921450;28;45428;-73
2023/08/20 09:19:00;;;;;;;;;4.75;4.75;;;;;35.22;37.43;101711.25;4935770;28;45520;-75
2023/08/20 09:21:29;;;;;;;;;3.25;3.00;;;;;35.37;37.18;101708.34;4933961;28;45324;-74
2023/08/20 09:23:55;;;;;;;;;4.25;4.25;;;;;35.50;37.24;101702.78;4916465;28;45255;-73
2023/08/20 09:26:21;;;;;;;;;4.50;4.50;;;;;35.58;37.42;101699.81;4927200;28;47879;-75
2023/08/20 09:28:47;;;;;;;;;5.00;5.00;;;;;35.74;37.06;101705.00;4924460;28;49500;-75
2023/08/20 09:31:13;;;;;;;;;3.50;3.50;;;;;35.84;37.05;101701.81;4916158;28;45520;-75
2023/08/20 09:33:49;;;;;;;;;5.75;4.00;;;;;35.92;36.42;101694.09;4923106;28;47288;-78
2023/08/20 09:36:15;;;;;;;;;4.00;4.00;;;;;35.85;36.59;101682.06;4923217;28;45402;-74
2023/08/20 09:38:40;;;;;;;;;3.00;3.00;;;;;35.98;35.92;101700.75;4917635;28;45371;-71
2023/08/20 09:41:08;;;;;;;;;6.50;4.25;;;;;35.96;36.19;101692.59;4917532;28;45355;-73
2023/08/20 09:43:38;;;;;;;;;3.00;3.00;;;;;36.06;36.19;101706.13;4919229;28;45501;-73
2023/08/20 09:46:04;;;;;;;;;6.00;6.00;;;;;36.17;36.46;101702.66;4931314;28;45713;-75
2023/08/20 09:48:33;;;;;;;;;4.00;4.00;;;;;36.22;36.32;101702.06;4924583;28;45461;-76
2023/08/20 09:51:03;;;;;;;;;3.25;3.25;;;;;36.16;36.23;101689.78;4916869;28;45469;-76
2023/08/20 09:53:39;;;;;;;;;5.50;4.25;;;;;36.25;35.64;101705.28;4916477;28;45608;-79
2023/08/20 09:56:14;;;;;;;;;3.00;3.00;;;;;36.31;36.21;101703.56;4916599;28;46417;-76
2023/08/20 09:58:44;;;;;;;;;6.00;4.00;;;;;36.34;35.79;101701.19;4916401;28;45509;-75
2023/08/20 10:01:09;;;;;;;;;3.75;3.75;;;;;36.34;36.03;101701.19;4918673;28;45990;-73
2023/08/20 10:03:36;;;;;;;;;5.00;5.00;;;;;36.35;35.88;101700.09;4919104;28;45565;-72
2023/08/20 10:06:03;;;;;;;;;3.75;2.75;;;;;36.47;35.59;101702.25;4919374;28;46659;-74
2023/08/20 10:08:28;;;;;;;;;5.00;4.00;;;;;36.56;35.07;101700.94;4934050;28;45470;-75
2023/08/20 10:10:53;;;;;;;;;3.00;3.00;;;;;36.56;35.58;101710.19;4919736;28;45353;-71
2023/08/20 10:13:19;;;;;;;;;4.00;3.75;;;;;36.45;35.01;101696.88;4919309;28;49399;-73
2023/08/20 10:15:46;;;;;;;;;3.75;3.75;;;;;36.49;35.34;101688.94;4919727;28;45341;-82
2023/08/20 10:18:11;;;;;;;;;3.50;3.50;;;;;36.48;35.16;101702.03;4919445;28;45390;-78
2023/08/20 10:20:40;;;;;;;;;4.00;4.00;;;;;36.34;34.44;101695.59;4925619;28;45358;-79
2023/08/20 10:23:06;;;;;;;;;3.00;3.00;;;;;36.25;35.03;101684.88;4939594;28;45816;-80
2023/08/20 10:25:41;;;;;;;;;3.00;3.00;;;;;36.44;35.01;101691.50;4938531;28;45481;-76
2023/08/20 10:28:18;;;;;;;;;6.00;4.00;;;;;36.49;35.11;101684.22;4939538;28;45451;-76
2023/08/20 10:31:03;;;;;;;;;4.50;3.00;;;;;36.60;34.91;101694.69;4919430;28;45390;-79
2023/08/20 10:33:29;;;;;;;;;3.00;3.00;;;;;36.56;35.17;101690.63;4927678;28;45594;-83
2023/08/20 10:35:54;;;;;;;;;3.00;3.00;;;;;36.67;34.73;101686.31;4938465;28;46366;-80
2023/08/20 10:38:19;;;;;;;;;3.75;3.75;;;;;36.75;34.68;101691.66;4938709;28;45314;-78
2023/08/20 10:40:55;;;;;;;;;2.75;2.75;;;;;36.74;34.45;101670.41;4941360;28;45326;-81
2023/08/20 10:43:28;;;;;;;;;4.00;4.00;;;;;36.81;34.68;101671.25;4942761;28;45355;-83
2023/08/20 10:46:14;;;;;;;;;5.00;5.00;;;;;36.85;34.43;101685.63;4938669;28;46113;-82
2023/08/20 10:48:40;;;;;;;;;4.50;4.25;;;;;36.79;34.82;101661.34;4938181;28;45472;-82
2023/08/20 10:51:31;;;;;;;;;5.50;4.75;;;;;36.94;34.36;101670.31;4938811;28;45342;-79
2023/08/20 10:53:59;;;;;;;;;3.00;3.00;;;;;37.01;34.49;101685.13;4921391;28;45324;-75
2023/08/20 10:56:40;;;;;;;;;5.50;4.00;;;;;36.94;34.79;101671.16;4917885;28;45546;-75
2023/08/20 10:59:08;;;;;;;;;4.00;4.00;;;;;36.96;34.30;101680.19;4928676;28;45334;-77
2023/08/20 11:01:34;;;;;;;;;3.00;3.00;;;;;37.14;34.06;101673.91;4922063;28;45637;-77
2023/08/20 11:04:04;;;;;;;;;6.00;6.00;;;;;37.20;33.81;101686.13;4935158;28;45609;-76
2023/08/20 11:06:32;;;;;;;;;4.00;4.00;;;;;37.12;33.95;101673.25;4932867;28;46089;-76
2023/08/20 11:08:57;;;;;;;;;5.50;5.50;;;;;37.16;34.23;101673.69;4924014;28;45318;-76
2023/08/20 11:11:23;;;;;;;;;4.75;4.75;;;;;37.29;34.14;101688.47;4937920;28;45403;-78
2023/08/20 11:13:48;;;;;;;;;5.00;5.00;;;;;37.35;34.52;101675.50;4926559;28;45528;-75
2023/08/20 11:16:14;;;;;;;;;4.00;4.00;;;;;37.34;33.38;101671.03;4923733;28;46042;-77
2023/08/20 11:18:39;;;;;;;;;3.75;3.75;;;;;37.41;33.69;101677.44;4933268;28;45425;-76
2023/08/20 11:21:05;;;;;;;;;3.50;2.75;;;;;37.22;32.73;101672.78;4926426;28;46240;-78
2023/08/20 11:23:31;;;;;;;;;3.25;3.00;;;;;37.41;33.05;101671.84;4923488;28;45555;-73
2023/08/20 11:25:57;;;;;;;;;4.25;2.50;;;;;37.45;32.40;101682.34;4927578;28;46199;-78
2023/08/20 11:28:22;;;;;;;;;4.00;4.00;;;;;37.35;32.81;101672.72;4926166;28;45358;-74
2023/08/20 11:30:49;;;;;;;;;3.00;3.00;;;;;37.29;33.05;101668.88;4923382;28;45793;-76
2023/08/20 11:33:14;;;;;;;;;4.25;4.25;;;;;37.50;32.94;101678.88;4918604;28;45398;-77
2023/08/20 11:35:41;;;;;;;;;4.00;3.00;;;;;37.72;33.07;101679.38;4920085;28;46038;-78
2023/08/20 11:38:06;;;;;;;;;3.00;3.00;;;;;37.82;32.71;101683.41;4938236;28;45435;-78
2023/08/20 11:40:31;;;;;;;;;3.00;3.00;;;;;37.89;33.11;101677.75;4937911;28;45478;-75
2023/08/20 11:42:57;;;;;;;;;4.50;3.00;;;;;37.86;32.30;101669.78;4937774;28;45452;-77
2023/08/20 11:45:23;;;;;;;;;3.00;3.00;;;;;37.97;32.22;101676.59;4937776;28;45444;-74
2023/08/20 11:47:48;;;;;;;;;4.00;3.00;;;;;37.83;32.48;101676.72;4929541;28;49732;-77
2023/08/20 11:50:13;;;;;;;;;5.00;3.00;;;;;37.97;32.10;101666.25;4919547;28;45409;-76
2023/08/20 11:52:39;;;;;;;;;5.00;3.50;;;;;38.04;32.15;101675.44;4929998;28;51588;-77
2023/08/20 11:55:06;;;;;;;;;4.50;4.50;;;;;38.11;32.25;101658.66;4918325;28;45554;-79
2023/08/20 11:57:31;;;;;;;;;3.25;3.00;;;;;38.26;32.65;101656.34;4910284;28;46266;-81
2023/08/20 12:00:04;;;;;;;;;4.00;4.00;;;;;38.47;32.63;101655.88;4924488;28;45374;-81
2023/08/20 12:02:29;;;;;;;;;3.25;3.25;;;;;38.68;32.23;101651.81;4920615;28;45567;-78
2023/08/20 12:04:59;;;;;;;;;4.75;3.50;;;;;38.78;30.31;101659.66;4917543;28;45334;-80
2023/08/20 12:07:26;;;;;;;;;3.25;3.25;;;;;38.80;30.95;101646.25;4921017;28;45243;-80
2023/08/20 12:09:53;;;;;;;;;2.00;2.00;;;;;38.75;30.63;101643.31;4933754;28;45439;-81
2023/08/20 12:12:22;;;;;;;;;6.00;3.00;;;;;38.91;30.77;101663.16;4918390;28;45616;-76
2023/08/20 12:14:48;;;;;;;;;6.75;4.00;;;;;38.96;30.81;101643.69;4923751;28;45508;-78
2023/08/20 12:17:18;;;;;;;;;2.75;2.75;;;;;39.17;30.69;101661.97;4917419;28;45466;-79
2023/08/20 12:19:45;;;;;;;;;1.00;1.00;;;;;39.11;29.11;101645.25;4917664;28;45437;-83
2023/08/20 12:22:12;;;;;;;;;9.25;3.75;;;;;39.08;29.47;101646.56;4917130;28;45599;-84
2023/08/20 12:24:37;;;;;;;;;2.50;2.25;;;;;39.18;29.24;101626.34;4917164;28;45386;-85
2023/08/20 12:27:03;;;;;;;;;2.00;2.00;;;;;39.32;29.28;101647.50;4921053;28;45263;-81
2023/08/20 12:29:29;;;;;;;;;2.25;2.25;;;;;39.63;29.06;101660.47;4923976;28;45340;-81
2023/08/20 12:31:54;;;;;;;;;2.00;2.00;;;;;39.80;28.58;101649.38;4923503;28;45333;-78
2023/08/20 12:34:21;;;;;;;;;2.50;2.50;;;;;40.03;27.86;101655.91;4923997;28;45472;-77
2023/08/20 12:36:47;;;;;;;;;2.00;2.00;;;;;40.02;27.91;101653.34;4918346;28;45716;-75
2023/08/20 12:39:13;;;;;;;;;2.00;2.00;;;;;40.09;27.98;101648.44;4917971;28;45488;-79
2023/08/20 12:41:38;;;;;;;;;4.00;2.50;;;;;39.94;28.55;101642.47;4919721;28;45393;-79
2023/08/20 12:44:04;;;;;;;;;4.50;3.00;;;;;39.75;28.72;101643.63;4917114;28;46262;-75
2023/08/20 12:46:30;;;;;;;;;1.00;1.00;;;;;39.59;29.07;101639.56;4917881;28;45760;-78
2023/08/20 12:48:55;;;;;;;;;2.00;2.00;;;;;39.64;29.21;101637.72;4917973;28;45307;-76
2023/08/20 12:51:20;;;;;;;;;1.50;1.50;;;;;39.70;28.98;101641.56;4922900;28;47138;-76
2023/08/20 12:53:46;;;;;;;;;2.00;2.00;;;;;39.96;28.62;101637.47;4923337;28;45855;-79
2023/08/20 12:56:11;;;;;;;;;2.75;2.75;;;;;40.02;28.20;101639.28;4917783;28;45252;-77
2023/08/20 12:58:37;;;;;;;;;3.00;2.00;;;;;40.04;28.21;101635.16;4917638;28;45446;-79
2023/08/20 13:01:03;;;;;;;;;4.00;2.50;;;;;40.03;27.76;101630.63;4919369;28;45228;-75
2023/08/20 13:03:28;;;;;;;;;3.75;2.00;;;;;39.77;28.67;101631.06;4923127;28;45240;-75
2023/08/20 13:05:56;;;;;;;;;1.00;1.00;;;;;39.63;28.37;101644.47;4937959;28;45268;-74
2023/08/20 13:08:22;;;;;;;;;2.00;2.00;;;;;39.60;28.76;101639.34;4953778;28;45505;-76
2023/08/20 13:10:55;;;;;;;;;3.50;2.25;;;;;39.66;29.25;101637.50;4937197;28;46176;-76
2023/08/20 13:13:22;;;;;;;;;2.25;2.25;;;;;39.67;28.90;101634.47;4937816;28;45421;-74
2023/08/20 13:15:49;;;;;;;;;3.00;3.00;;;;;39.86;29.66;101642.81;4932309;28;45248;-74
2023/08/20 13:18:15;;;;;;;;;2.75;2.75;;;;;39.94;28.72;101632.09;4936543;28;45473;-75
2023/08/20 13:20:40;;;;;;;;;4.00;2.00;;;;;40.07;28.41;101634.63;4936504;28;45434;-75
2023/08/20 13:23:06;;;;;;;;;3.00;2.00;;;;;40.23;28.75;101632.22;4936208;28;46106;-74
2023/08/20 13:25:31;;;;;;;;;1.75;1.75;;;;;40.25;29.05;101625.25;4936714;28;46609;-74
2023/08/20 13:27:56;;;;;;;;;3.00;3.00;;;;;40.40;28.52;101622.84;4924061;28;45627;-75
2023/08/20 13:30:22;;;;;;;;;2.75;2.00;;;;;40.49;27.84;101631.75;4927205;28;45311;-75
2023/08/20 13:32:49;;;;;;;;;2.00;2.00;;;;;40.49;28.44;101620.50;4918894;28;45476;-73
2023/08/20 13:35:14;;;;;;;;;3.00;3.00;;;;;40.59;28.34;101620.69;4919409;28;45266;-73
2023/08/20 13:37:40;;;;;;;;;2.75;2.00;;;;;40.69;27.30;101625.72;4919117;28;45451;-76
2023/08/20 13:40:08;;;;;;;;;2.00;2.00;;;;;40.57;27.28;101614.47;4920536;28;45322;-75
2023/08/20 13:42:33;;;;;;;;;2.50;1.00;;;;;40.68;27.66;101624.00;4938165;28;45429;-75
2023/08/20 13:44:59;;;;;;;;;1.25;1.25;;;;;40.66;27.37;101610.19;4939575;28;45342;-76
2023/08/20 13:47:24;;;;;;;;;2.00;2.00;;;;;40.74;26.98;101625.84;4938914;28;45572;-75
2023/08/20 13:49:49;;;;;;;;;2.00;1.50;;;;;40.79;27.51;101614.69;4939071;28;45485;-75
2023/08/20 13:52:14;;;;;;;;;1.25;1.25;;;;;40.83;26.95;101598.19;4938504;28;51485;-75
2023/08/20 13:54:40;;;;;;;;;2.00;2.00;;;;;40.79;27.09;101607.09;4939006;28;45400;-75
2023/08/20 13:57:05;;;;;;;;;2.25;2.25;;;;;40.88;26.61;101621.63;4938985;28;45499;-75
2023/08/20 13:59:31;;;;;;;;;2.25;2.00;;;;;40.79;26.26;101606.25;4938935;28;45381;-76
2023/08/20 14:01:56;;;;;;;;;0.75;0.75;;;;;40.80;26.78;101613.59;4937214;28;45942;-76
2023/08/20 14:04:21;;;;;;;;;2.00;2.00;;;;;41.00;26.47;101622.47;4936681;28;45297;-74
2023/08/20 14:06:47;;;;;;;;;1.00;1.00;;;;;41.13;26.39;101615.69;4935856;28;46009;-76
2023/08/20 14:09:13;;;;;;;;;1.50;1.25;;;;;41.15;26.21;101622.78;4936434;28;45590;-74
2023/08/20 14:11:38;;;;;;;;;1.00;1.00;;;;;41.23;26.07;101615.88;4926887;28;46195;-77
2023/08/20 14:14:04;;;;;;;;;3.00;1.00;;;;;41.35;26.38;101604.53;4937526;28;45429;-75
2023/08/20 14:16:29;;;;;;;;;1.75;1.75;;;;;41.35;25.82;101607.34;4920634;28;45398;-76
2023/08/20 14:18:55;;;;;;;;;2.00;2.00;;;;;41.53;26.18;101615.59;4918911;28;45532;-75
2023/08/20 14:21:20;;;;;;;;;2.00;2.00;;;;;41.49;25.32;101605.94;4928262;28;46199;-77
2023/08/20 14:23:46;;;;;;;;;1.75;1.75;;;;;41.39;24.77;101612.25;4918886;28;45448;-76
2023/08/20 14:26:11;;;;;;;;;1.25;1.25;;;;;41.45;24.83;101599.97;4927120;28;51147;-75
2023/08/20 14:28:36;;;;;;;;;2.00;0.50;;;;;41.57;26.01;101608.38;4924398;28;45631;-75
2023/08/20 14:31:03;;;;;;;;;2.00;2.00;;;;;41.56;24.88;101601.03;4925428;28;46203;-74
2023/08/20 14:33:29;;;;;;;;;1.00;1.00;;;;;41.46;25.12;101617.72;4918811;28;45338;-76
2023/08/20 14:35:54;;;;;;;;;2.00;2.00;;;;;41.39;25.63;101617.03;4918815;28;45495;-75
2023/08/20 14:38:20;;;;;;;;;3.00;2.00;;;;;41.28;25.24;101609.47;4918887;28;45349;-77
2023/08/20 14:40:45;;;;;;;;;1.00;1.00;;;;;41.35;24.90;101610.19;4930516;28;45992;-76
2023/08/20 14:43:10;;;;;;;;;0.25;0.25;;;;;41.41;24.79;101618.47;4918799;28;45325;-76
2023/08/20 14:45:36;;;;;;;;;1.00;0.75;;;;;41.47;25.53;101609.00;4920356;28;45445;-75
2023/08/20 14:48:02;;;;;;;;;1.00;1.00;;;;;41.61;24.33;101603.91;4918565;28;45262;-75
2023/08/20 14:50:27;;;;;;;;;2.00;1.75;;;;;41.62;24.84;101600.00;4933526;28;47632;-73
2023/08/20 14:52:53;;;;;;;;;2.00;2.00;;;;;41.62;25.44;101601.97;4927004;28;45422;-75
2023/08/20 14:55:19;;;;;;;;;1.50;1.00;;;;;41.58;24.40;101617.69;4919086;28;45270;-75
2023/08/20 14:57:45;;;;;;;;;1.25;1.25;;;;;41.61;24.11;101611.50;4919336;28;45541;-75
2023/08/20 15:00:13;;;;;;;;;0.00;0.00;;;;;41.62;24.36;101605.63;4930819;28;45409;-75
2023/08/20 15:02:42;;;;;;;;;0.25;0.25;;;;;41.73;24.12;101610.34;4925625;28;45329;-74
2023/08/20 15:05:10;;;;;;;;;1.00;1.00;;;;;41.70;23.62;101612.81;4938094;28;45371;-73
2023/08/20 15:07:35;;;;;;;;;1.00;1.00;;;;;41.57;24.36;101604.69;4938424;28;45452;-77
2023/08/20 15:10:00;;;;;;;;;1.00;1.00;;;;;41.49;23.73;101603.13;4937824;28;45414;-77
2023/08/20 15:12:26;;;;;;;;;0.33;0.33;;;;;41.41;24.55;101601.59;4937664;28;45518;-75
2023/08/20 15:14:51;;;;;;;;;0.50;0.50;;;;;41.32;24.71;101589.03;4938142;28;45453;-77
2023/08/20 15:17:17;;;;;;;;;1.00;1.00;;;;;41.31;24.21;101592.97;4936619;28;47084;-77
2023/08/20 15:19:42;;;;;;;;;0.00;0.00;;;;;41.45;23.86;101585.88;4936527;28;46052;-78
2023/08/20 15:22:07;;;;;;;;;1.00;1.00;;;;;41.90;24.07;101593.44;4936733;28;45434;-77
2023/08/20 15:24:33;;;;;;;;;1.75;0.75;;;;;42.17;22.87;101587.94;4938089;28;45384;-78
2023/08/20 15:26:58;;;;;;;;;0.00;0.00;;;;;42.31;22.90;101589.28;4929199;28;51166;-79
2023/08/20 15:29:23;;;;;;;;;0.00;0.00;;;;;42.15;22.12;101595.81;4920859;28;46301;-75
2023/08/20 15:31:51;;;;;;;;;0.00;0.00;;;;;41.99;21.89;101600.38;4917910;28;51602;-77
2023/08/20 15:34:17;;;;;;;;;0.00;0.00;;;;;41.76;21.95;101575.19;4931789;28;45395;-80
2023/08/20 15:36:42;;;;;;;;;0.00;0.00;;;;;41.68;21.77;101586.88;4938037;28;45476;-81
2023/08/20 15:39:07;;;;;;;;;0.33;0.00;;;;;41.63;21.47;101587.63;4936909;28;46284;-75
2023/08/20 15:41:33;;;;;;;;;0.00;0.00;;;;;41.57;21.99;101585.84;4936527;28;45327;-78
2023/08/20 15:43:58;;;;;;;;;0.25;0.25;;;;;41.47;21.79;101582.81;4920115;28;45216;-82
2023/08/20 15:46:23;;;;;;;;;1.00;1.00;;;;;41.35;22.05;101602.59;4917730;28;52312;-83
2023/08/20 15:48:49;;;;;;;;;0.00;0.00;;;;;41.38;21.24;101595.59;4917575;28;45417;-83
2023/08/20 15:51:14;;;;;;;;;0.00;0.00;;;;;41.34;21.51;101581.19;4923700;28;45509;-82